Hereford, Pennsylvania
Current Conditions -  °F | °C
As of 6:55 PM on Saturday 22 Nov 2014 (Local Time) from KXLL Reporting Station
Overcast Overcast  
Wind Chill: 41°   Ceiling: 3800
Heat Index: 41°   Visibility: 10mi
Dew Point: 19°   Wind: 3mph
Humidity: 42%   Direction: 200°SSW
Pressure: 30.27"   Gusts: NA
Location:  40.45°N, 75.55°W
Report Text: KXLL 222355Z AUTO 20003KT 10SM BKN038 OVC050 05/M07 A3027 RMK AO2
Loading
Personal Weather Stations






























Interactive Weather Map New forecast layout! Learn more

10-Day Weather Forecast

Advertisements
Track Severe Weather on mobile